sensor_id;sensor_type;location;lat;lon;timestamp;P1;durP1;ratioP1;P2;durP2;ratioP2
75454;SDS011;64035;48.358;2.122;2022-10-19T00:00:16;4.55;;;1.58;;
75454;SDS011;64035;48.358;2.122;2022-10-19T00:01:18;5.20;;;1.92;;
75454;SDS011;64035;48.358;2.122;2022-10-19T00:02:20;5.53;;;2.00;;
75454;SDS011;64035;48.358;2.122;2022-10-19T00:03:20;4.32;;;1.70;;
75454;SDS011;64035;48.358;2.122;2022-10-19T00:04:24;5.47;;;1.80;;
75454;SDS011;64035;48.358;2.122;2022-10-19T00:05:24;4.80;;;1.70;;
75454;SDS011;64035;48.358;2.122;2022-10-19T00:06:26;5.60;;;1.85;;
75454;SDS011;64035;48.358;2.122;2022-10-19T00:07:30;5.28;;;1.90;;
75454;SDS011;64035;48.358;2.122;2022-10-19T00:08:30;5.30;;;2.05;;
75454;SDS011;64035;48.358;2.122;2022-10-19T00:09:31;4.13;;;1.75;;
75454;SDS011;64035;48.358;2.122;2022-10-19T00:10:31;5.00;;;1.70;;
75454;SDS011;64035;48.358;2.122;2022-10-19T00:11:32;4.55;;;1.80;;
75454;SDS011;64035;48.358;2.122;2022-10-19T00:12:37;5.25;;;1.75;;
75454;SDS011;64035;48.358;2.122;2022-10-19T00:13:38;6.00;;;1.80;;
75454;SDS011;64035;48.358;2.122;2022-10-19T00:14:38;5.82;;;2.42;;
75454;SDS011;64035;48.358;2.122;2022-10-19T00:15:39;5.22;;;1.98;;
75454;SDS011;64035;48.358;2.122;2022-10-19T00:16:40;5.47;;;2.10;;
75454;SDS011;64035;48.358;2.122;2022-10-19T00:17:41;4.55;;;1.80;;
75454;SDS011;64035;48.358;2.122;2022-10-19T00:18:42;4.28;;;1.77;;
75454;SDS011;64035;48.358;2.122;2022-10-19T00:19:43;4.78;;;1.75;;
75454;SDS011;64035;48.358;2.122;2022-10-19T00:20:44;4.88;;;1.77;;
75454;SDS011;64035;48.358;2.122;2022-10-19T00:21:44;6.10;;;2.15;;
75454;SDS011;64035;48.358;2.122;2022-10-19T00:22:48;5.18;;;1.63;;
75454;SDS011;64035;48.358;2.122;2022-10-19T00:23:49;6.28;;;2.30;;
75454;SDS011;64035;48.358;2.122;2022-10-19T00:24:54;6.28;;;1.88;;
75454;SDS011;64035;48.358;2.122;2022-10-19T00:25:55;5.00;;;2.20;;
75454;SDS011;64035;48.358;2.122;2022-10-19T00:26:56;4.63;;;1.90;;
75454;SDS011;64035;48.358;2.122;2022-10-19T00:28:00;4.63;;;2.00;;
75454;SDS011;64035;48.358;2.122;2022-10-19T00:29:00;6.35;;;2.00;;
75454;SDS011;64035;48.358;2.122;2022-10-19T00:30:03;4.97;;;1.73;;
75454;SDS011;64035;48.358;2.122;2022-10-19T00:31:05;4.65;;;1.80;;
75454;SDS011;64035;48.358;2.122;2022-10-19T00:32:08;7.28;;;2.08;;
75454;SDS011;64035;48.358;2.122;2022-10-19T00:33:12;4.25;;;1.88;;
75454;SDS011;64035;48.358;2.122;2022-10-19T00:34:12;4.15;;;1.70;;
75454;SDS011;64035;48.358;2.122;2022-10-19T00:35:18;5.20;;;1.70;;
75454;SDS011;64035;48.358;2.122;2022-10-19T00:36:30;5.85;;;2.00;;
75454;SDS011;64035;48.358;2.122;2022-10-19T00:37:33;4.60;;;1.92;;
75454;SDS011;64035;48.358;2.122;2022-10-19T00:38:33;5.40;;;1.70;;
75454;SDS011;64035;48.358;2.122;2022-10-19T00:39:33;3.97;;;1.67;;
75454;SDS011;64035;48.358;2.122;2022-10-19T00:40:37;5.25;;;1.95;;
75454;SDS011;64035;48.358;2.122;2022-10-19T00:41:38;4.28;;;1.75;;
75454;SDS011;64035;48.358;2.122;2022-10-19T00:42:39;5.15;;;1.85;;
75454;SDS011;64035;48.358;2.122;2022-10-19T00:43:53;4.28;;;1.70;;
75454;SDS011;64035;48.358;2.122;2022-10-19T00:44:58;5.65;;;1.70;;
75454;SDS011;64035;48.358;2.122;2022-10-19T00:46:03;4.40;;;1.90;;
75454;SDS011;64035;48.358;2.122;2022-10-19T00:47:04;6.80;;;1.80;;
75454;SDS011;64035;48.358;2.122;2022-10-19T00:48:10;5.70;;;1.83;;
75454;SDS011;64035;48.358;2.122;2022-10-19T00:49:18;5.20;;;2.05;;
75454;SDS011;64035;48.358;2.122;2022-10-19T00:50:21;4.13;;;1.83;;
75454;SDS011;64035;48.358;2.122;2022-10-19T00:51:22;5.30;;;1.90;;
75454;SDS011;64035;48.358;2.122;2022-10-19T00:52:24;5.00;;;2.10;;
75454;SDS011;64035;48.358;2.122;2022-10-19T00:53:27;5.78;;;2.20;;
75454;SDS011;64035;48.358;2.122;2022-10-19T00:54:33;5.20;;;1.90;;
75454;SDS011;64035;48.358;2.122;2022-10-19T00:55:37;5.70;;;1.80;;
75454;SDS011;64035;48.358;2.122;2022-10-19T00:56:39;5.47;;;2.10;;
75454;SDS011;64035;48.358;2.122;2022-10-19T00:57:41;7.07;;;1.80;;
75454;SDS011;64035;48.358;2.122;2022-10-19T00:58:42;5.90;;;2.03;;
75454;SDS011;64035;48.358;2.122;2022-10-19T00:59:43;8.73;;;2.05;;
75454;SDS011;64035;48.358;2.122;2022-10-19T01:00:45;5.32;;;1.80;;
75454;SDS011;64035;48.358;2.122;2022-10-19T01:01:46;3.88;;;1.80;;
75454;SDS011;64035;48.358;2.122;2022-10-19T01:02:50;5.03;;;1.90;;
75454;SDS011;64035;48.358;2.122;2022-10-19T01:03:50;4.85;;;1.95;;
75454;SDS011;64035;48.358;2.122;2022-10-19T01:04:50;5.85;;;2.00;;
75454;SDS011;64035;48.358;2.122;2022-10-19T01:05:54;5.85;;;2.00;;
75454;SDS011;64035;48.358;2.122;2022-10-19T01:07:04;5.47;;;2.35;;
75454;SDS011;64035;48.358;2.122;2022-10-19T01:08:06;6.75;;;2.35;;
75454;SDS011;64035;48.358;2.122;2022-10-19T01:09:08;6.35;;;2.08;;
75454;SDS011;64035;48.358;2.122;2022-10-19T01:10:12;5.25;;;1.83;;
75454;SDS011;64035;48.358;2.122;2022-10-19T01:22:29;4.35;;;1.88;;
75454;SDS011;64035;48.358;2.122;2022-10-19T01:25:19;6.38;;;2.20;;
75454;SDS011;64035;48.358;2.122;2022-10-19T01:26:29;4.57;;;1.70;;
75454;SDS011;64035;48.358;2.122;2022-10-19T01:31:44;5.70;;;1.73;;
75454;SDS011;64035;48.358;2.122;2022-10-19T01:32:51;4.88;;;1.80;;
75454;SDS011;64035;48.358;2.122;2022-10-19T01:37:45;5.30;;;2.28;;
75454;SDS011;64035;48.358;2.122;2022-10-19T01:39:08;4.85;;;1.88;;
75454;SDS011;64035;48.358;2.122;2022-10-19T01:40:17;4.82;;;1.80;;
75454;SDS011;64035;48.358;2.122;2022-10-19T01:41:34;4.32;;;1.50;;
75454;SDS011;64035;48.358;2.122;2022-10-19T01:42:41;5.95;;;1.80;;
75454;SDS011;64035;48.358;2.122;2022-10-19T01:45:57;5.50;;;2.08;;
75454;SDS011;64035;48.358;2.122;2022-10-19T01:47:19;5.93;;;2.10;;
75454;SDS011;64035;48.358;2.122;2022-10-19T01:48:31;5.00;;;2.00;;
75454;SDS011;64035;48.358;2.122;2022-10-19T01:49:46;6.53;;;1.98;;
75454;SDS011;64035;48.358;2.122;2022-10-19T01:50:54;5.75;;;2.10;;
75454;SDS011;64035;48.358;2.122;2022-10-19T01:52:03;8.85;;;2.15;;
75454;SDS011;64035;48.358;2.122;2022-10-19T01:53:06;6.28;;;2.17;;
75454;SDS011;64035;48.358;2.122;2022-10-19T01:54:10;7.55;;;2.50;;
75454;SDS011;64035;48.358;2.122;2022-10-19T01:55:13;7.32;;;2.15;;
75454;SDS011;64035;48.358;2.122;2022-10-19T01:56:16;7.00;;;2.42;;
75454;SDS011;64035;48.358;2.122;2022-10-19T01:57:20;7.82;;;1.92;;
75454;SDS011;64035;48.358;2.122;2022-10-19T01:58:26;6.28;;;2.70;;
75454;SDS011;64035;48.358;2.122;2022-10-19T01:59:29;7.43;;;2.53;;
75454;SDS011;64035;48.358;2.122;2022-10-19T02:00:33;8.30;;;2.00;;
75454;SDS011;64035;48.358;2.122;2022-10-19T02:01:38;6.72;;;2.67;;
75454;SDS011;64035;48.358;2.122;2022-10-19T02:02:46;5.50;;;2.10;;
75454;SDS011;64035;48.358;2.122;2022-10-19T02:03:52;6.50;;;2.20;;
75454;SDS011;64035;48.358;2.122;2022-10-19T02:04:56;6.55;;;2.05;;
75454;SDS011;64035;48.358;2.122;2022-10-19T02:06:57;5.35;;;1.73;;
75454;SDS011;64035;48.358;2.122;2022-10-19T02:07:59;4.93;;;1.90;;
75454;SDS011;64035;48.358;2.122;2022-10-19T02:09:02;4.93;;;1.90;;
75454;SDS011;64035;48.358;2.122;2022-10-19T02:10:03;6.95;;;2.08;;
75454;SDS011;64035;48.358;2.122;2022-10-19T02:11:04;3.65;;;1.52;;
75454;SDS011;64035;48.358;2.122;2022-10-19T02:12:07;5.70;;;1.85;;
75454;SDS011;64035;48.358;2.122;2022-10-19T02:14:11;4.70;;;1.70;;
75454;SDS011;64035;48.358;2.122;2022-10-19T02:15:16;6.07;;;1.98;;
75454;SDS011;64035;48.358;2.122;2022-10-19T02:16:25;4.25;;;1.65;;
75454;SDS011;64035;48.358;2.122;2022-10-19T02:17:33;5.63;;;1.70;;
75454;SDS011;64035;48.358;2.122;2022-10-19T02:18:38;5.22;;;1.92;;
75454;SDS011;64035;48.358;2.122;2022-10-19T02:19:43;4.85;;;1.65;;
75454;SDS011;64035;48.358;2.122;2022-10-19T02:20:43;5.85;;;1.90;;
75454;SDS011;64035;48.358;2.122;2022-10-19T02:21:45;6.18;;;1.92;;
75454;SDS011;64035;48.358;2.122;2022-10-19T02:22:46;4.88;;;1.85;;
75454;SDS011;64035;48.358;2.122;2022-10-19T02:23:47;5.03;;;1.88;;
75454;SDS011;64035;48.358;2.122;2022-10-19T02:24:47;5.03;;;1.80;;
75454;SDS011;64035;48.358;2.122;2022-10-19T02:25:47;4.80;;;1.67;;
75454;SDS011;64035;48.358;2.122;2022-10-19T02:26:48;4.05;;;1.58;;
75454;SDS011;64035;48.358;2.122;2022-10-19T02:27:49;4.20;;;1.55;;
75454;SDS011;64035;48.358;2.122;2022-10-19T02:28:49;5.32;;;1.77;;
75454;SDS011;64035;48.358;2.122;2022-10-19T02:29:50;4.40;;;1.52;;
75454;SDS011;64035;48.358;2.122;2022-10-19T02:30:51;4.80;;;1.90;;
75454;SDS011;64035;48.358;2.122;2022-10-19T02:31:51;4.25;;;1.70;;
75454;SDS011;64035;48.358;2.122;2022-10-19T02:32:52;5.32;;;1.98;;
75454;SDS011;64035;48.358;2.122;2022-10-19T02:33:53;4.40;;;1.70;;
75454;SDS011;64035;48.358;2.122;2022-10-19T02:34:53;4.32;;;1.55;;
75454;SDS011;64035;48.358;2.122;2022-10-19T02:35:54;4.43;;;1.98;;
75454;SDS011;64035;48.358;2.122;2022-10-19T02:36:58;3.88;;;1.77;;
75454;SDS011;64035;48.358;2.122;2022-10-19T02:37:59;4.47;;;1.52;;
75454;SDS011;64035;48.358;2.122;2022-10-19T02:39:05;6.20;;;1.73;;
75454;SDS011;64035;48.358;2.122;2022-10-19T02:40:06;4.40;;;1.85;;
75454;SDS011;64035;48.358;2.122;2022-10-19T02:41:19;5.13;;;1.52;;
75454;SDS011;64035;48.358;2.122;2022-10-19T02:42:27;5.72;;;1.75;;
75454;SDS011;64035;48.358;2.122;2022-10-19T02:43:36;6.25;;;2.40;;
75454;SDS011;64035;48.358;2.122;2022-10-19T02:44:40;3.70;;;1.52;;
75454;SDS011;64035;48.358;2.122;2022-10-19T02:45:55;4.32;;;1.77;;
75454;SDS011;64035;48.358;2.122;2022-10-19T02:47:29;5.93;;;1.83;;
75454;SDS011;64035;48.358;2.122;2022-10-19T02:48:34;5.13;;;1.67;;
75454;SDS011;64035;48.358;2.122;2022-10-19T02:49:42;5.32;;;2.90;;
75454;SDS011;64035;48.358;2.122;2022-10-19T02:50:44;5.00;;;1.88;;
75454;SDS011;64035;48.358;2.122;2022-10-19T02:52:00;6.25;;;1.95;;
75454;SDS011;64035;48.358;2.122;2022-10-19T02:53:02;5.60;;;1.63;;
75454;SDS011;64035;48.358;2.122;2022-10-19T02:54:04;3.40;;;1.50;;
75454;SDS011;64035;48.358;2.122;2022-10-19T02:55:06;3.63;;;1.67;;
75454;SDS011;64035;48.358;2.122;2022-10-19T02:56:07;4.72;;;1.60;;
75454;SDS011;64035;48.358;2.122;2022-10-19T02:57:15;5.85;;;1.80;;
75454;SDS011;64035;48.358;2.122;2022-10-19T02:58:20;5.72;;;2.00;;
75454;SDS011;64035;48.358;2.122;2022-10-19T02:59:21;6.55;;;1.90;;
75454;SDS011;64035;48.358;2.122;2022-10-19T03:00:22;4.65;;;1.63;;
75454;SDS011;64035;48.358;2.122;2022-10-19T03:01:22;5.68;;;1.85;;
75454;SDS011;64035;48.358;2.122;2022-10-19T03:02:24;4.82;;;1.70;;
75454;SDS011;64035;48.358;2.122;2022-10-19T03:03:24;4.32;;;1.90;;
75454;SDS011;64035;48.358;2.122;2022-10-19T03:04:25;4.45;;;1.80;;
75454;SDS011;64035;48.358;2.122;2022-10-19T03:05:25;3.55;;;1.63;;
75454;SDS011;64035;48.358;2.122;2022-10-19T03:06:26;4.20;;;1.70;;
75454;SDS011;64035;48.358;2.122;2022-10-19T03:07:26;4.55;;;1.83;;
75454;SDS011;64035;48.358;2.122;2022-10-19T03:08:26;4.68;;;1.60;;
75454;SDS011;64035;48.358;2.122;2022-10-19T03:09:27;5.63;;;1.80;;
75454;SDS011;64035;48.358;2.122;2022-10-19T03:10:27;3.97;;;1.63;;
75454;SDS011;64035;48.358;2.122;2022-10-19T03:11:28;5.22;;;1.63;;
75454;SDS011;64035;48.358;2.122;2022-10-19T03:12:28;5.72;;;1.75;;
75454;SDS011;64035;48.358;2.122;2022-10-19T03:13:28;4.50;;;1.50;;
75454;SDS011;64035;48.358;2.122;2022-10-19T03:14:29;5.15;;;1.92;;
75454;SDS011;64035;48.358;2.122;2022-10-19T03:15:29;4.47;;;1.50;;
75454;SDS011;64035;48.358;2.122;2022-10-19T03:16:29;5.75;;;1.92;;
75454;SDS011;64035;48.358;2.122;2022-10-19T03:17:30;5.78;;;1.90;;
75454;SDS011;64035;48.358;2.122;2022-10-19T03:18:30;3.67;;;1.38;;
75454;SDS011;64035;48.358;2.122;2022-10-19T03:19:33;6.25;;;1.83;;
75454;SDS011;64035;48.358;2.122;2022-10-19T03:20:39;4.50;;;1.52;;
75454;SDS011;64035;48.358;2.122;2022-10-19T03:21:40;4.10;;;1.70;;
75454;SDS011;64035;48.358;2.122;2022-10-19T03:22:42;4.82;;;1.50;;
75454;SDS011;64035;48.358;2.122;2022-10-19T03:23:43;4.50;;;1.55;;
75454;SDS011;64035;48.358;2.122;2022-10-19T03:24:43;3.58;;;1.55;;
75454;SDS011;64035;48.358;2.122;2022-10-19T03:25:43;3.83;;;1.60;;
75454;SDS011;64035;48.358;2.122;2022-10-19T03:26:44;3.92;;;1.60;;
75454;SDS011;64035;48.358;2.122;2022-10-19T03:27:44;5.45;;;1.70;;
75454;SDS011;64035;48.358;2.122;2022-10-19T03:28:44;4.80;;;1.70;;
75454;SDS011;64035;48.358;2.122;2022-10-19T03:29:45;4.20;;;1.83;;
75454;SDS011;64035;48.358;2.122;2022-10-19T03:30:45;5.13;;;1.73;;
75454;SDS011;64035;48.358;2.122;2022-10-19T03:31:46;4.65;;;1.70;;
75454;SDS011;64035;48.358;2.122;2022-10-19T03:32:46;4.60;;;1.63;;
75454;SDS011;64035;48.358;2.122;2022-10-19T03:33:49;4.15;;;1.70;;
75454;SDS011;64035;48.358;2.122;2022-10-19T03:34:49;4.03;;;1.77;;
75454;SDS011;64035;48.358;2.122;2022-10-19T03:35:50;6.78;;;1.70;;
75454;SDS011;64035;48.358;2.122;2022-10-19T03:37:13;3.90;;;1.73;;
75454;SDS011;64035;48.358;2.122;2022-10-19T03:38:14;4.40;;;1.70;;
75454;SDS011;64035;48.358;2.122;2022-10-19T03:39:15;5.30;;;1.83;;
75454;SDS011;64035;48.358;2.122;2022-10-19T03:40:16;5.53;;;1.73;;
75454;SDS011;64035;48.358;2.122;2022-10-19T03:41:17;4.65;;;1.77;;
75454;SDS011;64035;48.358;2.122;2022-10-19T03:42:18;4.45;;;1.58;;
75454;SDS011;64035;48.358;2.122;2022-10-19T03:43:19;4.88;;;1.70;;
75454;SDS011;64035;48.358;2.122;2022-10-19T03:44:19;6.07;;;1.63;;
75454;SDS011;64035;48.358;2.122;2022-10-19T03:45:19;4.93;;;1.65;;
75454;SDS011;64035;48.358;2.122;2022-10-19T03:46:21;4.63;;;1.90;;
75454;SDS011;64035;48.358;2.122;2022-10-19T03:47:21;4.57;;;1.67;;
75454;SDS011;64035;48.358;2.122;2022-10-19T03:48:22;4.07;;;1.77;;
75454;SDS011;64035;48.358;2.122;2022-10-19T03:49:22;6.18;;;1.98;;
75454;SDS011;64035;48.358;2.122;2022-10-19T03:50:23;4.95;;;1.90;;
75454;SDS011;64035;48.358;2.122;2022-10-19T03:51:24;5.60;;;1.77;;
75454;SDS011;64035;48.358;2.122;2022-10-19T03:52:29;5.13;;;1.77;;
75454;SDS011;64035;48.358;2.122;2022-10-19T03:53:33;5.55;;;1.67;;
75454;SDS011;64035;48.358;2.122;2022-10-19T03:54:33;4.38;;;1.52;;
75454;SDS011;64035;48.358;2.122;2022-10-19T03:55:34;3.50;;;1.58;;
75454;SDS011;64035;48.358;2.122;2022-10-19T03:56:34;4.00;;;1.55;;
75454;SDS011;64035;48.358;2.122;2022-10-19T03:57:35;4.13;;;1.50;;
75454;SDS011;64035;48.358;2.122;2022-10-19T03:58:36;5.38;;;1.77;;
75454;SDS011;64035;48.358;2.122;2022-10-19T03:59:41;4.95;;;1.77;;
75454;SDS011;64035;48.358;2.122;2022-10-19T04:00:41;5.47;;;2.10;;
75454;SDS011;64035;48.358;2.122;2022-10-19T04:01:45;3.40;;;1.52;;
75454;SDS011;64035;48.358;2.122;2022-10-19T04:03:45;3.67;;;1.73;;
75454;SDS011;64035;48.358;2.122;2022-10-19T04:04:49;4.55;;;1.75;;
75454;SDS011;64035;48.358;2.122;2022-10-19T04:05:51;4.28;;;1.60;;
75454;SDS011;64035;48.358;2.122;2022-10-19T04:06:52;5.20;;;1.60;;
75454;SDS011;64035;48.358;2.122;2022-10-19T04:07:52;5.35;;;1.70;;
75454;SDS011;64035;48.358;2.122;2022-10-19T04:08:53;4.65;;;1.80;;
75454;SDS011;64035;48.358;2.122;2022-10-19T04:09:53;5.90;;;2.00;;
75454;SDS011;64035;48.358;2.122;2022-10-19T04:10:57;4.97;;;1.80;;
75454;SDS011;64035;48.358;2.122;2022-10-19T04:12:00;4.10;;;1.77;;
75454;SDS011;64035;48.358;2.122;2022-10-19T04:13:00;4.13;;;1.60;;
75454;SDS011;64035;48.358;2.122;2022-10-19T04:14:00;4.75;;;1.80;;
75454;SDS011;64035;48.358;2.122;2022-10-19T04:15:02;4.50;;;1.70;;
75454;SDS011;64035;48.358;2.122;2022-10-19T04:16:02;3.08;;;1.50;;
75454;SDS011;64035;48.358;2.122;2022-10-19T04:17:03;3.60;;;1.52;;
75454;SDS011;64035;48.358;2.122;2022-10-19T04:18:04;4.68;;;1.70;;
75454;SDS011;64035;48.358;2.122;2022-10-19T04:19:04;3.88;;;1.58;;
75454;SDS011;64035;48.358;2.122;2022-10-19T04:20:05;4.35;;;1.67;;
75454;SDS011;64035;48.358;2.122;2022-10-19T04:21:21;5.55;;;1.70;;
75454;SDS011;64035;48.358;2.122;2022-10-19T04:22:26;4.75;;;1.58;;
75454;SDS011;64035;48.358;2.122;2022-10-19T04:23:27;5.13;;;1.80;;
75454;SDS011;64035;48.358;2.122;2022-10-19T04:24:31;4.80;;;1.60;;
75454;SDS011;64035;48.358;2.122;2022-10-19T04:25:31;4.28;;;1.77;;
75454;SDS011;64035;48.358;2.122;2022-10-19T04:26:32;4.00;;;1.40;;
75454;SDS011;64035;48.358;2.122;2022-10-19T04:27:33;6.07;;;1.90;;
75454;SDS011;64035;48.358;2.122;2022-10-19T04:28:33;6.15;;;1.90;;
75454;SDS011;64035;48.358;2.122;2022-10-19T04:29:34;5.18;;;1.92;;
75454;SDS011;64035;48.358;2.122;2022-10-19T04:30:37;4.53;;;1.83;;
75454;SDS011;64035;48.358;2.122;2022-10-19T04:31:37;4.30;;;1.85;;
75454;SDS011;64035;48.358;2.122;2022-10-19T04:32:38;5.32;;;2.00;;
75454;SDS011;64035;48.358;2.122;2022-10-19T04:33:39;5.95;;;2.10;;
75454;SDS011;64035;48.358;2.122;2022-10-19T04:34:40;5.20;;;1.98;;
75454;SDS011;64035;48.358;2.122;2022-10-19T04:35:43;5.25;;;1.85;;
75454;SDS011;64035;48.358;2.122;2022-10-19T04:36:43;5.00;;;1.70;;
75454;SDS011;64035;48.358;2.122;2022-10-19T04:37:44;5.72;;;1.95;;
75454;SDS011;64035;48.358;2.122;2022-10-19T04:38:45;6.45;;;2.25;;
75454;SDS011;64035;48.358;2.122;2022-10-19T04:39:48;6.75;;;1.92;;
75454;SDS011;64035;48.358;2.122;2022-10-19T04:40:48;6.20;;;2.03;;
75454;SDS011;64035;48.358;2.122;2022-10-19T04:41:48;3.47;;;1.55;;
75454;SDS011;64035;48.358;2.122;2022-10-19T04:42:49;5.93;;;2.05;;
75454;SDS011;64035;48.358;2.122;2022-10-19T04:43:55;6.25;;;1.90;;
75454;SDS011;64035;48.358;2.122;2022-10-19T04:44:59;4.47;;;1.73;;
75454;SDS011;64035;48.358;2.122;2022-10-19T04:46:03;5.28;;;1.80;;
75454;SDS011;64035;48.358;2.122;2022-10-19T04:47:04;7.72;;;2.13;;
75454;SDS011;64035;48.358;2.122;2022-10-19T04:48:05;5.22;;;2.08;;
75454;SDS011;64035;48.358;2.122;2022-10-19T04:49:05;4.97;;;2.05;;
75454;SDS011;64035;48.358;2.122;2022-10-19T04:50:06;5.47;;;1.83;;
75454;SDS011;64035;48.358;2.122;2022-10-19T04:51:07;5.07;;;2.00;;
75454;SDS011;64035;48.358;2.122;2022-10-19T04:52:08;5.57;;;2.10;;
75454;SDS011;64035;48.358;2.122;2022-10-19T04:53:08;5.35;;;1.90;;
75454;SDS011;64035;48.358;2.122;2022-10-19T04:54:09;3.97;;;1.90;;
75454;SDS011;64035;48.358;2.122;2022-10-19T04:55:09;5.10;;;1.88;;
75454;SDS011;64035;48.358;2.122;2022-10-19T04:56:10;4.30;;;1.90;;
75454;SDS011;64035;48.358;2.122;2022-10-19T04:57:13;5.47;;;1.88;;
75454;SDS011;64035;48.358;2.122;2022-10-19T04:58:13;4.82;;;2.10;;
75454;SDS011;64035;48.358;2.122;2022-10-19T04:59:14;4.82;;;1.85;;
75454;SDS011;64035;48.358;2.122;2022-10-19T05:00:14;7.25;;;2.20;;
75454;SDS011;64035;48.358;2.122;2022-10-19T05:01:16;4.53;;;1.75;;
75454;SDS011;64035;48.358;2.122;2022-10-19T05:03:19;4.97;;;2.10;;
75454;SDS011;64035;48.358;2.122;2022-10-19T05:04:19;5.03;;;1.77;;
75454;SDS011;64035;48.358;2.122;2022-10-19T05:05:20;6.30;;;2.20;;
75454;SDS011;64035;48.358;2.122;2022-10-19T05:06:23;5.15;;;2.10;;
75454;SDS011;64035;48.358;2.122;2022-10-19T05:07:24;4.53;;;1.98;;
75454;SDS011;64035;48.358;2.122;2022-10-19T05:08:26;6.40;;;2.25;;
75454;SDS011;64035;48.358;2.122;2022-10-19T05:09:27;5.95;;;2.28;;
75454;SDS011;64035;48.358;2.122;2022-10-19T05:10:27;6.22;;;2.00;;
75454;SDS011;64035;48.358;2.122;2022-10-19T05:11:30;5.93;;;2.17;;
75454;SDS011;64035;48.358;2.122;2022-10-19T05:12:30;6.03;;;1.92;;
75454;SDS011;64035;48.358;2.122;2022-10-19T05:13:31;6.55;;;2.47;;
75454;SDS011;64035;48.358;2.122;2022-10-19T05:14:32;6.90;;;2.40;;
75454;SDS011;64035;48.358;2.122;2022-10-19T05:15:33;6.68;;;2.50;;
75454;SDS011;64035;48.358;2.122;2022-10-19T05:16:33;7.47;;;2.53;;
75454;SDS011;64035;48.358;2.122;2022-10-19T05:17:34;7.82;;;2.63;;
75454;SDS011;64035;48.358;2.122;2022-10-19T05:18:37;6.03;;;2.50;;
75454;SDS011;64035;48.358;2.122;2022-10-19T05:19:37;7.10;;;2.47;;
75454;SDS011;64035;48.358;2.122;2022-10-19T05:20:38;6.90;;;2.45;;
75454;SDS011;64035;48.358;2.122;2022-10-19T05:21:38;7.03;;;2.63;;
75454;SDS011;64035;48.358;2.122;2022-10-19T05:22:39;6.95;;;2.40;;
75454;SDS011;64035;48.358;2.122;2022-10-19T05:23:40;7.43;;;2.25;;
75454;SDS011;64035;48.358;2.122;2022-10-19T05:24:41;8.68;;;2.67;;
75454;SDS011;64035;48.358;2.122;2022-10-19T05:25:41;5.90;;;2.42;;
75454;SDS011;64035;48.358;2.122;2022-10-19T05:26:44;8.02;;;2.60;;
75454;SDS011;64035;48.358;2.122;2022-10-19T05:27:49;6.75;;;2.40;;
75454;SDS011;64035;48.358;2.122;2022-10-19T05:28:51;6.75;;;2.53;;
75454;SDS011;64035;48.358;2.122;2022-10-19T05:29:56;4.93;;;2.08;;
75454;SDS011;64035;48.358;2.122;2022-10-19T05:31:04;6.25;;;2.53;;
75454;SDS011;64035;48.358;2.122;2022-10-19T05:32:12;5.43;;;2.28;;
75454;SDS011;64035;48.358;2.122;2022-10-19T05:33:13;5.53;;;2.13;;
75454;SDS011;64035;48.358;2.122;2022-10-19T05:34:13;8.02;;;2.70;;
75454;SDS011;64035;48.358;2.122;2022-10-19T05:35:13;6.72;;;2.50;;
75454;SDS011;64035;48.358;2.122;2022-10-19T05:36:20;6.68;;;2.22;;
75454;SDS011;64035;48.358;2.122;2022-10-19T05:37:20;5.35;;;2.33;;
75454;SDS011;64035;48.358;2.122;2022-10-19T05:38:20;7.78;;;2.80;;
75454;SDS011;64035;48.358;2.122;2022-10-19T05:39:24;7.65;;;2.45;;
75454;SDS011;64035;48.358;2.122;2022-10-19T05:40:25;5.82;;;1.83;;
75454;SDS011;64035;48.358;2.122;2022-10-19T05:41:25;7.68;;;2.70;;
75454;SDS011;64035;48.358;2.122;2022-10-19T05:42:26;9.32;;;2.90;;
75454;SDS011;64035;48.358;2.122;2022-10-19T05:43:28;5.45;;;2.10;;
75454;SDS011;64035;48.358;2.122;2022-10-19T05:44:29;6.45;;;2.85;;
75454;SDS011;64035;48.358;2.122;2022-10-19T05:45:29;5.47;;;2.03;;
75454;SDS011;64035;48.358;2.122;2022-10-19T05:46:30;6.93;;;1.95;;
75454;SDS011;64035;48.358;2.122;2022-10-19T05:47:32;7.07;;;2.50;;
75454;SDS011;64035;48.358;2.122;2022-10-19T05:48:33;6.35;;;2.22;;
75454;SDS011;64035;48.358;2.122;2022-10-19T05:49:34;6.30;;;2.20;;
75454;SDS011;64035;48.358;2.122;2022-10-19T05:50:35;5.65;;;2.17;;
75454;SDS011;64035;48.358;2.122;2022-10-19T05:51:35;6.97;;;2.08;;
75454;SDS011;64035;48.358;2.122;2022-10-19T05:52:35;7.88;;;2.53;;
75454;SDS011;64035;48.358;2.122;2022-10-19T05:53:36;8.00;;;2.08;;
75454;SDS011;64035;48.358;2.122;2022-10-19T05:54:36;7.05;;;2.30;;
75454;SDS011;64035;48.358;2.122;2022-10-19T05:55:37;7.18;;;2.33;;
75454;SDS011;64035;48.358;2.122;2022-10-19T05:56:38;7.45;;;2.17;;
75454;SDS011;64035;48.358;2.122;2022-10-19T05:57:39;6.30;;;2.30;;
75454;SDS011;64035;48.358;2.122;2022-10-19T05:58:42;7.43;;;2.30;;
75454;SDS011;64035;48.358;2.122;2022-10-19T05:59:43;5.75;;;2.33;;
75454;SDS011;64035;48.358;2.122;2022-10-19T06:00:43;6.05;;;2.30;;
75454;SDS011;64035;48.358;2.122;2022-10-19T06:01:50;6.00;;;2.00;;
75454;SDS011;64035;48.358;2.122;2022-10-19T06:02:50;5.85;;;2.17;;
75454;SDS011;64035;48.358;2.122;2022-10-19T06:03:51;7.15;;;2.28;;
75454;SDS011;64035;48.358;2.122;2022-10-19T06:04:53;6.47;;;2.28;;
75454;SDS011;64035;48.358;2.122;2022-10-19T06:05:53;5.13;;;2.03;;
75454;SDS011;64035;48.358;2.122;2022-10-19T06:06:54;5.90;;;2.60;;
75454;SDS011;64035;48.358;2.122;2022-10-19T06:07:54;6.45;;;2.40;;
75454;SDS011;64035;48.358;2.122;2022-10-19T06:08:55;7.75;;;2.58;;
75454;SDS011;64035;48.358;2.122;2022-10-19T06:09:57;7.32;;;2.20;;
75454;SDS011;64035;48.358;2.122;2022-10-19T06:11:05;8.52;;;2.70;;
75454;SDS011;64035;48.358;2.122;2022-10-19T06:12:17;5.53;;;2.00;;
75454;SDS011;64035;48.358;2.122;2022-10-19T06:13:19;5.05;;;2.10;;
75454;SDS011;64035;48.358;2.122;2022-10-19T06:14:19;6.78;;;2.42;;
75454;SDS011;64035;48.358;2.122;2022-10-19T06:15:20;7.93;;;2.38;;
75454;SDS011;64035;48.358;2.122;2022-10-19T06:16:20;4.50;;;2.17;;
75454;SDS011;64035;48.358;2.122;2022-10-19T06:17:22;5.78;;;2.17;;
75454;SDS011;64035;48.358;2.122;2022-10-19T06:18:23;6.03;;;2.38;;
75454;SDS011;64035;48.358;2.122;2022-10-19T06:19:24;5.43;;;2.17;;
75454;SDS011;64035;48.358;2.122;2022-10-19T06:20:25;8.52;;;2.70;;
75454;SDS011;64035;48.358;2.122;2022-10-19T06:21:28;7.07;;;2.65;;
75454;SDS011;64035;48.358;2.122;2022-10-19T06:22:30;6.15;;;2.38;;
75454;SDS011;64035;48.358;2.122;2022-10-19T06:23:31;6.95;;;2.20;;
75454;SDS011;64035;48.358;2.122;2022-10-19T06:24:32;7.20;;;2.40;;
75454;SDS011;64035;48.358;2.122;2022-10-19T06:25:33;6.57;;;2.65;;
75454;SDS011;64035;48.358;2.122;2022-10-19T06:26:34;7.22;;;2.80;;
75454;SDS011;64035;48.358;2.122;2022-10-19T06:27:35;7.18;;;2.60;;
75454;SDS011;64035;48.358;2.122;2022-10-19T06:28:36;7.05;;;3.13;;
75454;SDS011;64035;48.358;2.122;2022-10-19T06:29:40;6.90;;;2.83;;
75454;SDS011;64035;48.358;2.122;2022-10-19T06:30:43;8.23;;;2.92;;
75454;SDS011;64035;48.358;2.122;2022-10-19T06:31:46;7.63;;;2.90;;
75454;SDS011;64035;48.358;2.122;2022-10-19T06:32:47;7.72;;;2.97;;
75454;SDS011;64035;48.358;2.122;2022-10-19T06:33:47;8.00;;;2.97;;
75454;SDS011;64035;48.358;2.122;2022-10-19T06:34:48;6.35;;;2.50;;
75454;SDS011;64035;48.358;2.122;2022-10-19T06:35:48;8.40;;;2.80;;
75454;SDS011;64035;48.358;2.122;2022-10-19T06:36:48;9.40;;;3.33;;
75454;SDS011;64035;48.358;2.122;2022-10-19T06:37:49;7.82;;;3.13;;
75454;SDS011;64035;48.358;2.122;2022-10-19T06:38:49;9.05;;;3.00;;
75454;SDS011;64035;48.358;2.122;2022-10-19T06:39:50;8.80;;;3.13;;
75454;SDS011;64035;48.358;2.122;2022-10-19T06:40:50;7.90;;;3.33;;
75454;SDS011;64035;48.358;2.122;2022-10-19T06:41:50;8.77;;;3.00;;
75454;SDS011;64035;48.358;2.122;2022-10-19T06:42:51;6.90;;;2.80;;
75454;SDS011;64035;48.358;2.122;2022-10-19T06:43:54;7.65;;;3.08;;